createdAt,value
2018-11-10T00:02:22.127Z,12.50
2018-11-10T00:05:04.551Z,12.50
2018-11-10T00:07:45.528Z,12.50
2018-11-10T00:10:27.100Z,12.50
2018-11-10T00:13:08.772Z,12.50
2018-11-10T00:15:50.505Z,12.40
2018-11-10T00:18:32.734Z,12.40
2018-11-10T00:21:13.742Z,12.40
2018-11-10T00:23:55.566Z,12.40
2018-11-10T00:26:37.664Z,12.40
2018-11-10T00:29:19.573Z,12.40
2018-11-10T00:32:02.065Z,12.40
2018-11-10T00:34:43.759Z,12.40
2018-11-10T00:37:25.525Z,12.40
2018-11-10T00:40:07.216Z,12.40
2018-11-10T00:42:48.703Z,12.30
2018-11-10T00:45:30.401Z,12.30
2018-11-10T00:48:11.884Z,12.30
2018-11-10T00:50:53.095Z,12.20
2018-11-10T00:53:35.028Z,12.20
2018-11-10T00:56:16.464Z,12.20
2018-11-10T00:58:57.929Z,12.30
2018-11-10T01:01:39.456Z,12.30
2018-11-10T01:04:21.004Z,12.20
2018-11-10T01:07:03.331Z,12.20
2018-11-10T01:09:44.345Z,12.20
2018-11-10T01:12:25.974Z,12.20
2018-11-10T01:15:08.010Z,12.10
2018-11-10T01:17:49.357Z,12.10
2018-11-10T01:20:31.594Z,12.00
2018-11-10T01:23:12.459Z,12.00
2018-11-10T01:25:53.973Z,12.00
2018-11-10T01:28:35.815Z,12.00
2018-11-10T01:31:17.527Z,12.00
2018-11-10T01:33:59.130Z,12.00
2018-11-10T01:36:40.886Z,12.00
2018-11-10T01:39:22.611Z,12.00
2018-11-10T01:42:04.809Z,12.10
2018-11-10T01:44:45.788Z,12.20
2018-11-10T01:47:27.549Z,12.20
2018-11-10T01:50:09.984Z,12.40
2018-11-10T01:52:51.766Z,12.40
2018-11-10T01:55:33.748Z,12.50
2018-11-10T01:58:15.340Z,12.60
2018-11-10T02:00:56.858Z,12.60
2018-11-10T02:03:37.824Z,12.70
2018-11-10T02:06:19.590Z,12.70
2018-11-10T02:09:01.103Z,12.70
2018-11-10T02:11:42.903Z,12.70
2018-11-10T02:14:24.680Z,12.80
2018-11-10T02:17:06.894Z,12.80
2018-11-10T02:19:48.310Z,12.80
2018-11-10T02:22:30.076Z,12.80
2018-11-10T02:25:12.052Z,12.90
2018-11-10T02:27:54.452Z,12.90
2018-11-10T02:30:35.534Z,12.90
2018-11-10T02:33:17.224Z,12.90
2018-11-10T02:35:59.210Z,13.00
2018-11-10T02:38:40.736Z,13.00
2018-11-10T02:41:22.313Z,13.00
2018-11-10T02:44:03.699Z,13.00
2018-11-10T02:46:45.388Z,13.10
2018-11-10T02:49:26.954Z,13.20
2018-11-10T02:52:08.478Z,13.20
2018-11-10T02:54:50.251Z,13.30
2018-11-10T02:57:31.823Z,13.30
2018-11-10T03:00:13.924Z,13.40
2018-11-10T03:02:55.983Z,13.40
2018-11-10T03:05:37.716Z,13.50
2018-11-10T03:08:18.690Z,13.50
2018-11-10T03:11:00.282Z,13.60
2018-11-10T03:13:41.969Z,13.60
2018-11-10T03:16:23.637Z,13.60
2018-11-10T03:19:06.070Z,13.60
2018-11-10T03:21:48.367Z,13.60
2018-11-10T03:24:29.677Z,13.60
2018-11-10T03:27:11.245Z,13.50
2018-11-10T03:29:53.105Z,13.60
2018-11-10T03:32:35.079Z,13.60
2018-11-10T03:35:16.317Z,13.60
2018-11-10T03:37:58.375Z,13.60
2018-11-10T03:40:39.907Z,13.60
2018-11-10T03:43:21.626Z,13.50
2018-11-10T03:46:03.206Z,13.50
2018-11-10T03:48:46.061Z,13.50
2018-11-10T03:51:27.591Z,13.40
2018-11-10T03:54:09.310Z,13.40
2018-11-10T03:56:50.792Z,13.40
2018-11-10T03:59:33.401Z,13.40
2018-11-10T04:02:15.229Z,13.40
2018-11-10T04:04:56.675Z,13.30
2018-11-10T04:07:38.186Z,13.30
2018-11-10T04:10:19.971Z,13.30
2018-11-10T04:13:01.673Z,13.40
2018-11-10T04:15:43.528Z,13.40
2018-11-10T04:18:25.553Z,13.50
2018-11-10T04:21:06.478Z,13.50
2018-11-10T04:23:48.462Z,13.50
2018-11-10T04:26:30.650Z,13.40
2018-11-10T04:29:11.941Z,13.40
2018-11-10T04:31:53.897Z,13.40
2018-11-10T04:34:34.979Z,13.40
2018-11-10T04:37:16.749Z,13.40
2018-11-10T04:39:58.306Z,13.40
2018-11-10T04:42:40.132Z,13.50
2018-11-10T04:45:21.852Z,13.50
2018-11-10T04:48:04.025Z,13.40
2018-11-10T04:50:45.109Z,13.40
2018-11-10T04:53:27.029Z,13.40
2018-11-10T04:56:08.399Z,13.40
2018-11-10T04:58:50.190Z,13.40
2018-11-10T05:01:32.357Z,13.40
2018-11-10T05:04:13.353Z,13.40
2018-11-10T05:06:54.942Z,13.40
2018-11-10T05:09:36.557Z,13.40
2018-11-10T05:12:18.737Z,13.50
2018-11-10T05:14:59.307Z,13.40
2018-11-10T05:17:40.392Z,13.50
2018-11-10T05:20:22.285Z,13.50
2018-11-10T05:23:03.370Z,13.50
2018-11-10T05:25:45.858Z,13.40
2018-11-10T05:28:27.922Z,13.50
2018-11-10T05:31:10.135Z,13.40
2018-11-10T05:33:51.036Z,13.40
2018-11-10T05:36:32.724Z,13.40
2018-11-10T05:39:14.982Z,13.40
2018-11-10T05:41:56.706Z,13.40
2018-11-10T05:44:37.817Z,13.40
2018-11-10T05:47:19.999Z,13.30
2018-11-10T05:50:01.203Z,13.30
2018-11-10T05:52:42.891Z,13.40
2018-11-10T05:55:24.488Z,13.40
2018-11-10T05:58:06.159Z,13.50
2018-11-10T06:00:48.641Z,13.60
2018-11-10T06:03:30.660Z,13.60
2018-11-10T06:06:12.268Z,13.70
2018-11-10T06:08:53.663Z,13.80
2018-11-10T06:11:35.220Z,14.00
2018-11-10T06:14:17.526Z,14.00
2018-11-10T06:16:58.607Z,14.00
2018-11-10T06:19:40.293Z,14.00
2018-11-10T06:22:22.342Z,14.00
2018-11-10T06:25:03.304Z,14.00
2018-11-10T06:27:44.758Z,14.00
2018-11-10T06:30:26.163Z,14.00
2018-11-10T06:33:07.671Z,14.00
2018-11-10T06:35:49.331Z,13.90
2018-11-10T06:38:30.801Z,14.00
2018-11-10T06:41:13.147Z,14.00
2018-11-10T06:43:55.439Z,14.00
2018-11-10T06:46:36.698Z,14.00
2018-11-10T06:49:19.100Z,14.10
2018-11-10T06:52:00.615Z,14.00
2018-11-10T06:54:42.586Z,14.00
2018-11-10T06:57:23.866Z,14.00
2018-11-10T07:00:05.378Z,14.00
2018-11-10T07:02:47.071Z,14.00
2018-11-10T07:05:28.632Z,14.00
2018-11-10T07:08:10.347Z,14.00
2018-11-10T07:10:51.913Z,14.10
2018-11-10T07:13:33.405Z,14.20
2018-11-10T07:16:15.195Z,14.30
2018-11-10T07:18:56.987Z,14.50
2018-11-10T07:21:38.615Z,14.70
2018-11-10T07:24:20.400Z,14.80
2018-11-10T07:27:01.990Z,15.00
2018-11-10T07:29:43.704Z,15.10
2018-11-10T07:32:25.240Z,15.50
2018-11-10T07:35:06.946Z,16.20
2018-11-10T07:37:48.643Z,17.10
2018-11-10T07:40:30.517Z,17.60
2018-11-10T07:43:12.106Z,18.00
2018-11-10T07:45:54.323Z,18.80
2018-11-10T07:48:36.074Z,19.60
2018-11-10T07:51:18.033Z,20.60
2018-11-10T07:53:59.084Z,21.30
2018-11-10T07:56:40.167Z,22.10
2018-11-10T07:59:21.125Z,22.60
2018-11-10T08:02:02.915Z,23.20
2018-11-10T08:04:44.308Z,23.90
2018-11-10T08:07:25.790Z,24.20
2018-11-10T08:10:07.612Z,24.40
2018-11-10T08:12:48.994Z,24.70
2018-11-10T08:15:30.488Z,25.00
2018-11-10T08:18:12.352Z,25.70
2018-11-10T08:20:54.655Z,26.40
2018-11-10T08:23:35.657Z,27.10
2018-11-10T08:26:18.345Z,27.70
2018-11-10T08:28:59.830Z,28.40
2018-11-10T08:31:41.315Z,28.90
2018-11-10T08:34:22.904Z,28.60
2018-11-10T08:37:04.304Z,27.70
2018-11-10T08:39:45.791Z,27.00
2018-11-10T08:42:27.389Z,26.70
2018-11-10T08:45:10.115Z,27.20
2018-11-10T08:47:51.478Z,27.00
2018-11-10T08:50:32.875Z,28.20
2018-11-10T08:53:14.359Z,29.20
2018-11-10T08:55:56.987Z,29.10
2018-11-10T08:58:38.759Z,29.80
2018-11-10T09:01:20.223Z,28.90
2018-11-10T09:04:02.029Z,28.40
2018-11-10T09:06:43.607Z,28.90
2018-11-10T09:09:25.911Z,29.30
2018-11-10T09:14:35.982Z,29.70
2018-11-10T09:17:17.841Z,30.70
2018-11-10T09:19:59.490Z,30.80
2018-11-10T09:22:41.873Z,29.80
2018-11-10T09:25:23.090Z,28.60
2018-11-10T09:28:04.353Z,27.30
2018-11-10T09:30:45.917Z,26.80
2018-11-10T09:33:27.636Z,26.80
2018-11-10T09:36:09.426Z,27.30
2018-11-10T09:38:51.617Z,28.10
2018-11-10T09:41:32.511Z,28.10
2018-11-10T09:44:13.992Z,28.20
2018-11-10T09:46:55.785Z,29.00
2018-11-10T09:49:37.364Z,29.70
2018-11-10T09:52:19.659Z,30.80
2018-11-10T09:55:01.188Z,31.50
2018-11-10T09:57:42.963Z,31.90
2018-11-10T10:00:24.361Z,32.20
2018-11-10T10:05:34.929Z,32.50
2018-11-10T10:08:17.120Z,33.00
2018-11-10T10:10:58.183Z,33.00
2018-11-10T10:13:40.296Z,32.90
2018-11-10T10:16:22.224Z,32.40
2018-11-10T10:19:03.896Z,32.10
2018-11-10T10:21:45.600Z,31.90
2018-11-10T10:24:27.169Z,32.20
2018-11-10T10:27:08.668Z,32.40
2018-11-10T10:29:50.366Z,32.30
2018-11-10T10:32:32.127Z,31.30
2018-11-10T10:35:14.572Z,31.30
2018-11-10T10:37:55.715Z,31.70
2018-11-10T10:40:37.042Z,32.10
2018-11-10T10:43:18.711Z,30.50
2018-11-10T10:46:00.372Z,30.10
2018-11-10T10:48:42.828Z,29.40
2018-11-10T10:51:24.597Z,28.80
2018-11-10T10:54:06.706Z,27.20
2018-11-10T10:56:47.799Z,25.70
2018-11-10T10:59:29.559Z,24.30
2018-11-10T11:02:16.358Z,24.10
2018-11-10T11:04:59.803Z,23.30
2018-11-10T11:07:41.523Z,23.00
2018-11-10T11:10:22.759Z,22.80
2018-11-10T11:13:04.883Z,22.50
2018-11-10T11:15:46.144Z,22.20
2018-11-10T11:18:27.655Z,21.90
2018-11-10T11:21:09.674Z,22.10
2018-11-10T11:23:50.907Z,21.90
2018-11-10T11:26:32.908Z,21.70
2018-11-10T11:29:13.920Z,21.80
2018-11-10T11:31:55.396Z,21.80
2018-11-10T11:34:37.154Z,22.00
2018-11-10T11:37:18.031Z,22.10
2018-11-10T11:39:59.111Z,22.10
2018-11-10T11:42:40.630Z,22.30
2018-11-10T11:45:22.326Z,22.00
2018-11-10T11:48:03.465Z,22.00
2018-11-10T11:50:45.361Z,22.20
2018-11-10T11:53:26.954Z,22.10
2018-11-10T11:56:07.844Z,22.10
2018-11-10T11:58:49.747Z,22.10
2018-11-10T12:01:31.548Z,22.00
2018-11-10T12:04:13.545Z,22.30
2018-11-10T12:06:55.319Z,22.40
2018-11-10T12:09:37.869Z,22.00
2018-11-10T12:12:18.707Z,21.90
2018-11-10T12:14:59.805Z,21.70
2018-11-10T12:17:42.217Z,21.30
2018-11-10T12:20:23.162Z,21.40
2018-11-10T12:23:04.849Z,21.60
2018-11-10T12:25:46.346Z,21.50
2018-11-10T12:28:28.033Z,21.30
2018-11-10T12:31:10.114Z,21.30
2018-11-10T12:33:51.513Z,21.20
2018-11-10T12:36:33.620Z,20.70
2018-11-10T12:39:14.981Z,20.60
2018-11-10T12:41:56.702Z,20.50
2018-11-10T12:44:37.978Z,20.30
2018-11-10T12:47:20.447Z,20.20
2018-11-10T12:50:01.442Z,20.00
2018-11-10T12:52:43.648Z,19.70
2018-11-10T12:55:26.007Z,19.80
2018-11-10T12:58:06.941Z,19.80
2018-11-10T13:00:48.760Z,19.90
2018-11-10T13:03:30.562Z,20.00
2018-11-10T13:06:12.835Z,20.10
2018-11-10T13:08:54.316Z,20.20
2018-11-10T13:11:36.057Z,20.20
2018-11-10T13:14:17.730Z,20.20
2018-11-10T13:16:59.189Z,20.30
2018-11-10T13:19:40.347Z,20.30
2018-11-10T13:22:22.060Z,20.30
2018-11-10T13:25:04.041Z,20.40
2018-11-10T13:27:46.016Z,20.40
2018-11-10T13:30:27.546Z,20.50
2018-11-10T13:33:09.667Z,20.50
2018-11-10T13:35:51.110Z,20.40
2018-11-10T13:38:32.083Z,20.60
2018-11-10T13:41:13.688Z,20.60
2018-11-10T13:43:55.426Z,20.60
2018-11-10T13:46:37.852Z,21.20
2018-11-10T13:49:19.572Z,22.20
2018-11-10T13:52:00.907Z,23.10
2018-11-10T13:54:42.333Z,23.10
2018-11-10T13:57:23.850Z,23.10
2018-11-10T14:00:05.919Z,23.40
2018-11-10T14:02:47.432Z,24.60
2018-11-10T14:05:29.071Z,25.50
2018-11-10T14:08:10.091Z,26.90
2018-11-10T14:10:51.477Z,28.20
2018-11-10T14:13:33.908Z,28.10
2018-11-10T14:16:14.764Z,27.50
2018-11-10T14:18:55.857Z,27.60
2018-11-10T14:21:37.540Z,27.70
2018-11-10T14:24:19.359Z,26.80
2018-11-10T14:27:01.092Z,25.50
2018-11-10T14:29:42.425Z,23.90
2018-11-10T14:32:24.561Z,22.70
2018-11-10T14:35:05.668Z,21.90
2018-11-10T14:37:47.137Z,21.20
2018-11-10T14:40:28.931Z,20.90
2018-11-10T14:43:10.137Z,20.80
2018-11-10T14:45:52.594Z,20.60
2018-11-10T14:48:33.932Z,20.20
2018-11-10T14:51:15.710Z,19.80
2018-11-10T14:53:57.590Z,19.70
2018-11-10T14:56:39.427Z,19.60
2018-11-10T14:59:20.902Z,19.40
2018-11-10T15:02:02.589Z,19.20
2018-11-10T15:04:44.394Z,19.10
2018-11-10T15:07:26.250Z,18.90
2018-11-10T15:10:08.478Z,18.70
2018-11-10T15:12:50.272Z,18.70
2018-11-10T15:15:31.324Z,18.60
2018-11-10T15:18:13.411Z,18.50
2018-11-10T15:20:55.701Z,18.40
2018-11-10T15:23:37.113Z,18.30
2018-11-10T15:26:18.806Z,18.30
2018-11-10T15:29:01.522Z,18.20
2018-11-10T15:31:42.596Z,18.20
2018-11-10T15:34:24.287Z,18.10
2018-11-10T15:37:06.526Z,18.10
2018-11-10T15:39:48.136Z,18.00
2018-11-10T15:42:29.092Z,18.00
2018-11-10T15:45:11.765Z,17.90
2018-11-10T15:47:53.396Z,17.80
2018-11-10T15:50:34.839Z,17.80
2018-11-10T15:53:15.700Z,17.70
2018-11-10T15:55:57.571Z,17.70
2018-11-10T15:58:39.641Z,17.70
2018-11-10T16:01:20.919Z,17.60
2018-11-10T16:04:03.362Z,17.60
2018-11-10T16:06:44.115Z,17.50
2018-11-10T16:09:26.653Z,17.50
2018-11-10T16:12:08.210Z,17.40
2018-11-10T16:14:50.103Z,17.40
2018-11-10T16:17:31.485Z,17.30
2018-11-10T16:20:17.838Z,17.20
2018-11-10T16:22:58.784Z,17.20
2018-11-10T16:25:40.028Z,17.10
2018-11-10T16:28:23.161Z,17.00
2018-11-10T16:31:04.323Z,16.90
2018-11-10T16:33:45.934Z,16.80
2018-11-10T16:36:28.262Z,16.80
2018-11-10T16:39:11.143Z,16.80
2018-11-10T16:41:52.707Z,16.80
2018-11-10T16:44:34.426Z,16.80
2018-11-10T16:47:17.249Z,16.80
2018-11-10T16:49:59.252Z,16.80
2018-11-10T16:52:42.122Z,16.80
2018-11-10T16:58:11.353Z,16.80
2018-11-10T17:00:52.968Z,16.80
2018-11-10T17:03:34.548Z,16.70
2018-11-10T17:06:15.913Z,16.70
2018-11-10T17:08:57.460Z,16.70
2018-11-10T17:11:38.727Z,16.70
2018-11-10T17:14:19.948Z,16.70
2018-11-10T17:17:02.265Z,16.60
2018-11-10T17:19:43.756Z,16.50
2018-11-10T17:22:27.618Z,16.40
2018-11-10T17:25:10.301Z,16.40
2018-11-10T17:27:52.074Z,16.40
2018-11-10T17:30:33.410Z,16.40
2018-11-10T17:33:15.163Z,16.40
2018-11-10T17:35:58.064Z,16.40
2018-11-10T17:38:39.412Z,16.30
2018-11-10T17:41:20.175Z,16.30
2018-11-10T17:44:02.154Z,16.30
2018-11-10T17:46:43.871Z,16.30
2018-11-10T17:49:25.250Z,16.30
2018-11-10T17:52:07.129Z,16.30
2018-11-10T17:54:48.346Z,16.30
2018-11-10T17:57:29.401Z,16.30
2018-11-10T18:00:11.173Z,16.30
2018-11-10T18:02:52.759Z,16.40
2018-11-10T18:05:34.450Z,16.40
2018-11-10T18:08:16.067Z,16.30
2018-11-10T18:10:57.834Z,16.30
2018-11-10T18:13:39.627Z,16.40
2018-11-10T18:16:21.474Z,16.30
2018-11-10T18:19:03.291Z,16.30
2018-11-10T18:21:44.743Z,16.30
2018-11-10T18:24:26.602Z,16.30
2018-11-10T18:27:08.086Z,16.30
2018-11-10T18:29:49.687Z,16.40
2018-11-10T18:32:31.561Z,16.40
2018-11-10T18:35:13.339Z,16.40
2018-11-10T18:37:55.188Z,16.30
2018-11-10T18:40:37.413Z,16.30
2018-11-10T18:43:18.576Z,16.30
2018-11-10T18:46:00.669Z,16.20
2018-11-10T18:48:42.451Z,16.30
2018-11-10T18:51:24.147Z,16.20
2018-11-10T18:54:05.966Z,16.20
2018-11-10T18:56:47.496Z,16.10
2018-11-10T18:59:29.099Z,16.00
2018-11-10T19:02:10.529Z,16.00
2018-11-10T19:04:52.193Z,15.90
2018-11-10T19:07:33.550Z,15.90
2018-11-10T19:10:16.496Z,15.90
2018-11-10T19:12:58.864Z,16.00
2018-11-10T19:15:40.823Z,16.00
2018-11-10T19:18:22.773Z,16.00
2018-11-10T19:21:05.142Z,15.90
2018-11-10T19:23:46.901Z,15.90
2018-11-10T19:26:28.865Z,16.00
2018-11-10T19:29:11.016Z,16.00
2018-11-10T19:31:52.354Z,15.90
2018-11-10T19:34:34.807Z,15.80
2018-11-10T19:37:16.042Z,15.80
2018-11-10T19:39:58.710Z,15.70
2018-11-10T19:42:41.429Z,15.70
2018-11-10T19:45:23.318Z,15.70
2018-11-10T19:48:04.854Z,15.70
2018-11-10T19:50:47.085Z,15.70
2018-11-10T19:53:28.259Z,15.60
2018-11-10T19:56:10.974Z,15.70
2018-11-10T19:58:52.159Z,15.70
2018-11-10T20:01:33.875Z,15.80
2018-11-10T20:04:15.616Z,15.80
2018-11-10T20:06:57.717Z,15.80
2018-11-10T20:09:40.328Z,15.80
2018-11-10T20:12:22.138Z,15.90
2018-11-10T20:15:04.073Z,15.90
2018-11-10T20:17:46.063Z,15.90
2018-11-10T20:20:27.504Z,15.90
2018-11-10T20:23:10.216Z,16.00
2018-11-10T20:25:51.333Z,15.90
2018-11-10T20:28:33.132Z,15.90
2018-11-10T20:31:15.919Z,15.90
2018-11-10T20:33:57.955Z,15.90
2018-11-10T20:36:40.333Z,15.90
2018-11-10T20:39:21.700Z,15.90
2018-11-10T20:42:03.902Z,16.00
2018-11-10T20:44:46.390Z,16.00
2018-11-10T20:47:28.248Z,16.00
2018-11-10T20:50:09.843Z,16.00
2018-11-10T20:52:51.899Z,16.00
2018-11-10T20:55:34.136Z,16.00
2018-11-10T20:58:15.831Z,16.00
2018-11-10T21:00:57.532Z,16.00
2018-11-10T21:03:40.012Z,15.90
2018-11-10T21:06:20.891Z,15.80
2018-11-10T21:09:03.724Z,15.80
2018-11-10T21:11:46.805Z,15.80
2018-11-10T21:14:27.797Z,15.70
2018-11-10T21:17:09.045Z,15.70
2018-11-10T21:19:50.155Z,15.70
2018-11-10T21:22:31.559Z,15.60
2018-11-10T21:25:13.953Z,15.60
2018-11-10T21:27:55.842Z,15.50
2018-11-10T21:30:36.800Z,15.50
2018-11-10T21:33:18.703Z,15.40
2018-11-10T21:36:00.604Z,15.30
2018-11-10T21:38:41.796Z,15.30
2018-11-10T21:41:22.638Z,15.20
2018-11-10T21:44:04.978Z,15.20
2018-11-10T21:46:46.253Z,15.20
2018-11-10T21:49:28.696Z,15.20
2018-11-10T21:52:10.124Z,15.20
2018-11-10T21:54:52.508Z,15.10
2018-11-10T21:57:33.659Z,15.10
2018-11-10T22:00:16.678Z,15.10
2018-11-10T22:02:58.995Z,15.20
2018-11-10T22:05:40.555Z,15.10
2018-11-10T22:08:21.620Z,15.10
2018-11-10T22:11:03.019Z,15.10
2018-11-10T22:13:44.716Z,15.10
2018-11-10T22:16:26.976Z,15.10
2018-11-10T22:19:08.498Z,15.10
2018-11-10T22:21:50.461Z,15.10
2018-11-10T22:24:32.291Z,15.20
2018-11-10T22:27:14.394Z,15.20
2018-11-10T22:29:56.764Z,15.20
2018-11-10T22:32:38.541Z,15.20
2018-11-10T22:35:19.985Z,15.10
2018-11-10T22:38:01.937Z,15.10
2018-11-10T22:40:43.651Z,15.00
2018-11-10T22:43:26.150Z,15.00
2018-11-10T22:46:07.669Z,15.00
2018-11-10T22:48:49.034Z,15.00
2018-11-10T22:51:31.140Z,15.00
2018-11-10T22:54:12.213Z,15.10
2018-11-10T22:56:53.906Z,15.20
2018-11-10T22:59:36.288Z,15.20
2018-11-10T23:02:18.034Z,15.30
2018-11-10T23:04:59.918Z,15.30
2018-11-10T23:07:41.492Z,15.40
2018-11-10T23:10:23.674Z,15.50
2018-11-10T23:13:06.839Z,15.60
2018-11-10T23:15:47.766Z,15.60
2018-11-10T23:18:29.466Z,15.60
2018-11-10T23:21:11.379Z,15.70
2018-11-10T23:27:00.716Z,15.70
2018-11-10T23:29:42.536Z,15.80
2018-11-10T23:32:24.180Z,15.90
2018-11-10T23:35:06.376Z,15.90
2018-11-10T23:37:47.602Z,15.90
2018-11-10T23:40:29.576Z,15.90
2018-11-10T23:43:11.123Z,15.90
2018-11-10T23:45:52.820Z,16.00
2018-11-10T23:48:33.684Z,16.00
2018-11-10T23:51:15.577Z,16.00
2018-11-10T23:53:57.521Z,16.00
2018-11-10T23:56:38.935Z,16.00
2018-11-10T23:59:20.629Z,15.90
